Time;durP1;ratioP1;P1;durP2;ratioP2;P2;SDS_P1;SDS_P2;PMS_P1;PMS_P2;Temp;Humidity;BMP_temperature;BMP_pressure;BME280_temperature;BME280_humidity;BME280_pressure;Samples;Min_cycle;Max_cycle;Signal;HPM_P1;HPM_P2
2023/05/04 00:02:13;;;;;;;15.45;12.52;;;12.00;99.90;;;12.18;67.81;102178.75;5113181;28;20055;-71
2023/05/04 00:04:43;;;;;;;16.27;11.73;;;11.90;99.90;;;11.94;68.18;102171.47;5113448;28;20443;-70
2023/05/04 00:07:12;;;;;;;14.00;11.73;;;11.80;99.90;;;11.85;68.50;102144.81;5113691;28;20039;-70
2023/05/04 00:09:40;;;;;;;15.10;12.50;;;11.80;99.90;;;12.00;68.41;102168.84;5113055;28;20118;-70
2023/05/04 00:12:09;;;;;;;17.55;12.90;;;11.80;99.90;;;11.97;68.57;102165.28;5112979;28;20504;-70
2023/05/04 00:14:37;;;;;;;15.82;12.27;;;11.70;99.90;;;12.02;68.38;102168.88;5113603;28;20082;-70
2023/05/04 00:17:06;;;;;;;16.80;13.10;;;11.70;99.90;;;12.02;68.29;102145.88;5091458;28;20078;-70
2023/05/04 00:19:36;;;;;;;15.45;12.75;;;11.80;99.90;;;11.88;67.93;102134.28;5109043;28;20032;-70
2023/05/04 00:22:05;;;;;;;15.27;13.07;;;11.80;99.90;;;12.09;68.06;102163.66;5113211;28;20078;-70
2023/05/04 00:24:34;;;;;;;19.13;12.38;;;11.80;99.90;;;12.16;67.93;102162.84;5112939;28;20048;-71
2023/05/04 00:27:02;;;;;;;15.93;13.00;;;11.90;99.90;;;12.07;68.16;102160.09;5094787;28;20382;-70
2023/05/04 00:29:31;;;;;;;15.07;12.60;;;11.90;99.90;;;12.01;68.31;102161.78;5112852;28;20040;-70
2023/05/04 00:31:59;;;;;;;16.15;12.95;;;11.70;99.90;;;12.04;68.37;102161.84;5094757;28;20044;-70
2023/05/04 00:34:28;;;;;;;17.38;13.40;;;11.80;99.90;;;11.99;68.59;102160.88;5086678;28;20040;-70
2023/05/04 00:36:57;;;;;;;19.05;13.00;;;11.70;99.90;;;12.03;68.47;102165.34;5095943;28;20048;-70
2023/05/04 00:39:27;;;;;;;19.63;13.27;;;11.80;99.90;;;12.01;68.52;102159.13;5086782;28;20051;-70
2023/05/04 00:41:55;;;;;;;19.25;13.55;;;11.80;99.90;;;11.92;68.33;102152.00;5078952;28;20083;-70
2023/05/04 00:44:24;;;;;;;19.13;12.82;;;11.70;99.90;;;12.02;68.49;102150.31;5098838;28;20048;-70
2023/05/04 00:46:53;;;;;;;18.13;13.95;;;11.70;99.90;;;11.85;68.89;102147.47;5098876;28;20129;-70
2023/05/04 00:49:21;;;;;;;19.98;12.80;;;11.60;99.90;;;11.83;68.65;102145.69;5117112;28;20158;-70
2023/05/04 00:51:50;;;;;;;17.15;12.95;;;11.60;99.90;;;11.92;68.46;102151.09;5116775;28;20043;-71
2023/05/04 00:54:19;;;;;;;19.52;13.57;;;11.70;99.90;;;11.95;68.49;102124.59;5116973;28;20100;-70
2023/05/04 00:56:50;;;;;;;17.42;12.50;;;11.70;99.90;;;11.91;68.50;102128.09;5098716;28;20094;-71
2023/05/04 00:59:18;;;;;;;15.20;13.13;;;11.70;99.90;;;11.90;68.82;102126.31;5116636;28;20469;-70
2023/05/04 01:01:46;;;;;;;18.05;13.68;;;11.60;99.90;;;11.83;68.89;102116.53;5117214;28;20050;-70
2023/05/04 01:04:15;;;;;;;18.98;13.48;;;11.60;99.90;;;11.78;68.92;102122.69;5112844;28;20039;-71
2023/05/04 01:06:48;;;;;;;14.82;12.63;;;11.50;99.90;;;11.63;69.00;102111.84;5116789;28;20530;-71
2023/05/04 01:09:25;;;;;;;16.13;12.68;;;11.40;99.90;;;11.59;69.37;102115.34;5116554;28;20070;-71
2023/05/04 01:12:05;;;;;;;20.33;13.70;;;11.40;99.90;;;11.51;69.48;102101.13;5098510;28;20054;-71
2023/05/04 01:14:34;;;;;;;18.38;13.50;;;11.30;99.90;;;11.59;69.65;102103.88;5113539;28;20042;-71
2023/05/04 01:17:05;;;;;;;18.25;13.57;;;11.30;99.90;;;11.49;69.70;102097.56;5116590;28;20043;-70
2023/05/04 01:19:34;;;;;;;15.68;13.70;;;11.30;99.90;;;11.49;69.83;102092.28;5116620;28;20519;-71
2023/05/04 01:22:05;;;;;;;17.63;13.43;;;11.20;99.90;;;11.48;69.79;102085.19;5098194;28;20069;-70
2023/05/04 01:24:34;;;;;;;16.98;13.65;;;11.30;99.90;;;11.33;70.43;102082.38;5116562;28;20054;-71
2023/05/04 01:27:08;;;;;;;18.83;14.38;;;11.20;99.90;;;11.32;70.41;102083.25;5094739;28;20082;-71
2023/05/04 01:29:46;;;;;;;19.02;14.02;;;11.10;99.90;;;10.96;71.03;102072.16;5086850;28;20078;-71
2023/05/04 01:32:18;;;;;;;18.42;13.88;;;10.90;99.90;;;11.14;71.16;102087.41;5116683;28;20043;-70
2023/05/04 01:34:46;;;;;;;19.38;14.48;;;10.90;99.90;;;11.25;70.89;102081.38;5094613;28;20131;-70
2023/05/04 01:37:16;;;;;;;17.90;13.38;;;11.00;99.90;;;11.22;70.58;102085.75;5116132;28;20040;-70
2023/05/04 01:39:45;;;;;;;19.67;14.95;;;11.00;99.90;;;11.25;70.83;102086.69;5112840;28;20078;-70
2023/05/04 01:42:13;;;;;;;16.45;13.70;;;11.00;99.90;;;11.05;71.21;102092.59;5116177;28;20109;-71
2023/05/04 01:44:43;;;;;;;21.85;14.95;;;10.80;99.90;;;11.09;71.43;102090.00;5116190;28;20046;-70
2023/05/04 01:47:12;;;;;;;19.25;14.73;;;10.80;99.90;;;10.90;71.21;102058.84;5097573;28;20048;-70
2023/05/04 01:49:40;;;;;;;18.05;14.98;;;10.90;99.90;;;11.06;71.49;102099.66;5097554;28;20094;-70
2023/05/04 01:52:09;;;;;;;18.30;15.07;;;10.80;99.90;;;11.06;71.68;102076.72;5097532;28;20442;-71
2023/05/04 01:54:39;;;;;;;16.17;14.20;;;10.80;99.90;;;11.05;71.45;102077.59;5097237;28;20043;-71
2023/05/04 01:57:08;;;;;;;19.95;14.95;;;10.80;99.90;;;11.01;71.66;102065.19;5115856;28;20115;-70
2023/05/04 01:59:36;;;;;;;18.23;14.48;;;10.80;99.90;;;11.03;71.62;102071.41;5085174;28;20397;-70
2023/05/04 02:02:04;;;;;;;19.05;14.10;;;10.80;99.90;;;10.98;72.16;102064.25;5111734;28;20051;-70
2023/05/04 02:04:33;;;;;;;18.05;14.73;;;10.80;99.90;;;10.84;71.54;102072.00;5097359;28;20450;-70
2023/05/04 02:07:01;;;;;;;21.65;15.10;;;10.70;99.90;;;10.85;72.11;102060.56;5089161;28;20043;-70
2023/05/04 02:09:30;;;;;;;20.52;14.63;;;10.70;99.90;;;10.96;72.07;102053.63;5097245;28;20085;-70
2023/05/04 02:12:00;;;;;;;18.90;15.15;;;10.70;99.90;;;10.80;72.38;102067.56;5089434;28;20466;-70
2023/05/04 02:14:29;;;;;;;18.58;15.45;;;10.60;99.90;;;10.90;72.62;102069.44;5115826;28;20046;-70
2023/05/04 02:16:57;;;;;;;20.02;15.02;;;10.60;99.90;;;10.70;72.81;102063.00;5097162;28;20392;-70
2023/05/04 02:19:26;;;;;;;20.63;16.30;;;10.50;99.90;;;10.44;73.75;102052.03;5097028;28;20481;-70
2023/05/04 02:21:54;;;;;;;19.65;15.40;;;10.40;99.90;;;10.67;73.62;102070.88;5085249;28;20139;-70
2023/05/04 02:24:26;;;;;;;19.52;15.15;;;10.40;99.90;;;10.56;73.72;102053.97;5111342;28;20067;-71
2023/05/04 02:26:55;;;;;;;18.92;15.73;;;10.40;99.90;;;10.41;74.23;102053.75;5097084;28;20120;-70
2023/05/04 02:29:24;;;;;;;19.23;16.33;;;10.20;99.90;;;10.14;75.04;102048.91;5096824;28;20040;-70
2023/05/04 02:31:53;;;;;;;22.83;15.53;;;10.00;99.90;;;10.43;74.70;102050.22;5096886;28;20063;-70
2023/05/04 02:34:21;;;;;;;21.15;16.35;;;10.20;99.90;;;10.54;74.53;102042.47;5114688;28;20048;-70
2023/05/04 02:36:49;;;;;;;19.67;15.52;;;10.30;99.90;;;10.47;74.78;102043.25;5115173;28;20126;-70
2023/05/04 02:39:18;;;;;;;19.33;14.88;;;10.30;99.90;;;10.49;74.84;102034.47;5088572;28;20036;-70
2023/05/04 02:41:46;;;;;;;19.98;16.35;;;10.30;99.90;;;10.52;74.92;102038.91;5114766;28;20403;-70
2023/05/04 02:44:14;;;;;;;23.90;15.80;;;10.30;99.90;;;10.51;74.85;102037.16;5114952;28;20050;-70
2023/05/04 02:46:44;;;;;;;18.20;14.77;;;10.30;99.90;;;10.61;74.64;102036.38;5089501;28;20499;-70
2023/05/04 02:49:12;;;;;;;18.13;15.20;;;10.30;99.90;;;10.65;74.28;102044.41;5111370;28;20036;-70
2023/05/04 02:51:41;;;;;;;19.88;15.35;;;10.40;99.90;;;10.60;74.58;102039.91;5096432;28;20079;-70
2023/05/04 02:54:09;;;;;;;20.05;14.77;;;10.50;99.90;;;10.55;74.70;102042.50;5114686;28;20097;-71
2023/05/04 02:56:37;;;;;;;18.95;15.65;;;10.30;99.90;;;10.63;74.54;102039.94;5096435;28;20142;-71
2023/05/04 02:59:06;;;;;;;18.45;15.23;;;10.40;99.90;;;10.58;74.88;102047.84;5113858;28;20046;-70
2023/05/04 03:01:34;;;;;;;17.92;15.55;;;10.40;99.90;;;10.55;74.71;102044.28;5114517;28;20536;-70
2023/05/04 03:04:05;;;;;;;23.83;15.30;;;10.30;99.90;;;10.52;75.06;102041.56;5114548;28;20043;-70
2023/05/04 03:06:35;;;;;;;21.33;15.10;;;10.30;99.90;;;10.56;75.08;102044.28;5114542;28;20035;-71
2023/05/04 03:09:04;;;;;;;20.40;15.32;;;10.30;99.90;;;10.64;74.66;102047.03;5088800;28;20503;-70
2023/05/04 03:11:32;;;;;;;20.58;15.00;;;10.40;99.90;;;10.49;75.10;102039.75;5110894;28;20051;-71
2023/05/04 03:14:01;;;;;;;16.83;14.80;;;10.30;99.90;;;10.57;74.81;102039.84;5114324;28;20431;-70
2023/05/04 03:16:29;;;;;;;17.65;15.60;;;10.30;99.90;;;10.58;74.37;102026.69;5087810;28;20497;-70
2023/05/04 03:18:58;;;;;;;18.25;15.15;;;10.40;99.90;;;10.57;74.70;102018.69;5114255;28;20070;-70
2023/05/04 03:21:28;;;;;;;21.17;15.57;;;10.40;99.90;;;10.70;74.63;102040.06;5095614;28;20059;-70
2023/05/04 03:23:56;;;;;;;18.08;14.48;;;10.40;99.90;;;10.73;74.67;102040.09;5095843;28;20048;-70
2023/05/04 03:26:24;;;;;;;19.42;14.77;;;10.50;99.90;;;10.60;74.51;102034.63;5087649;28;20723;-70
2023/05/04 03:28:53;;;;;;;18.50;14.57;;;10.40;99.90;;;10.48;74.90;102029.16;5114120;28;20046;-71
2023/05/04 03:31:21;;;;;;;17.25;14.80;;;10.40;99.90;;;10.54;74.59;102035.44;5083755;28;20097;-70
2023/05/04 03:33:52;;;;;;;19.52;14.95;;;10.30;99.90;;;10.56;75.02;102041.63;5110281;28;20435;-71
2023/05/04 03:36:21;;;;;;;18.73;14.15;;;10.30;99.90;;;10.52;75.11;102025.69;5095593;28;20052;-70
2023/05/04 03:38:52;;;;;;;18.63;14.75;;;10.30;99.90;;;10.58;74.77;102028.44;5087234;28;20043;-70
2023/05/04 03:41:21;;;;;;;21.57;15.33;;;10.40;99.90;;;10.58;74.57;102031.97;5113877;28;20466;-71
2023/05/04 03:43:49;;;;;;;21.88;15.63;;;10.30;99.90;;;10.52;75.01;102009.81;5087403;28;20281;-70
2023/05/04 03:46:19;;;;;;;18.02;15.18;;;10.30;99.90;;;10.42;75.13;102015.84;5095428;28;20040;-70
2023/05/04 03:48:47;;;;;;;20.45;15.40;;;10.30;99.90;;;10.50;75.61;102011.53;5113740;28;20035;-70
2023/05/04 03:51:17;;;;;;;19.20;14.32;;;10.30;99.90;;;10.46;75.08;101999.16;5092043;28;20040;-70
2023/05/04 03:53:46;;;;;;;17.55;14.60;;;10.20;99.90;;;10.35;75.40;102004.31;5091383;28;20044;-70
2023/05/04 03:56:18;;;;;;;20.38;15.15;;;10.10;99.90;;;10.42;75.79;102003.50;5095646;28;20051;-71
2023/05/04 03:58:47;;;;;;;16.10;14.40;;;10.20;99.90;;;10.32;75.31;101995.41;5087174;28;20048;-71
2023/05/04 04:01:19;;;;;;;20.67;15.90;;;10.10;99.90;;;10.34;75.73;101991.03;5113253;28;20071;-71
2023/05/04 04:03:48;;;;;;;18.55;14.40;;;10.10;99.90;;;10.29;75.97;101990.09;5113468;28;20039;-70
2023/05/04 04:06:18;;;;;;;;;;;10.10;99.90;;;10.25;75.47;101988.25;5113654;28;20467;-71
2023/05/04 04:08:47;;;;;;;18.58;14.43;;;10.10;99.90;;;10.15;76.17;101994.25;5109458;28;19963;-71
2023/05/04 04:11:15;;;;;;;17.55;15.10;;;10.00;99.90;;;10.09;76.42;101997.69;5109374;28;20439;-70
2023/05/04 04:13:45;;;;;;;21.30;15.18;;;9.90;99.90;;;10.15;76.57;101988.97;5113589;28;20043;-71
2023/05/04 04:16:13;;;;;;;25.03;14.77;;;9.90;99.90;;;10.04;76.94;101984.38;5112990;28;20035;-70
2023/05/04 04:18:42;;;;;;;19.55;14.00;;;9.90;99.90;;;10.19;76.63;101988.16;5095279;28;20293;-70
2023/05/04 04:21:10;;;;;;;21.38;15.38;;;9.90;99.90;;;9.65;76.79;101911.53;5112943;28;20049;-70
2023/05/04 04:23:38;;;;;;;17.20;14.90;;;9.90;99.90;;;10.08;77.18;101980.06;5112968;28;20035;-70
2023/05/04 04:26:07;;;;;;;22.17;14.82;;;9.90;99.90;;;10.17;76.76;101977.56;5112876;28;20966;-71
2023/05/04 04:28:35;;;;;;;16.83;14.68;;;9.90;99.90;;;10.25;77.02;101978.59;5112839;28;20502;-70
2023/05/04 04:31:05;;;;;;;19.52;15.48;;;10.00;99.90;;;10.28;76.33;101983.91;5112803;28;20118;-70
2023/05/04 04:33:33;;;;;;;18.30;14.43;;;10.00;99.90;;;10.24;76.28;101968.00;5091553;28;20056;-70
2023/05/04 04:36:02;;;;;;;16.35;13.90;;;10.00;99.90;;;9.98;77.00;101970.19;5112722;28;20329;-70
2023/05/04 04:38:30;;;;;;;19.42;14.75;;;9.80;99.90;;;9.99;77.56;101971.97;5113092;28;20040;-70
2023/05/04 04:40:58;;;;;;;17.23;14.40;;;9.80;99.90;;;10.03;77.27;101972.03;5112828;28;20050;-70
2023/05/04 04:43:27;;;;;;;20.02;14.85;;;9.80;99.90;;;9.96;77.44;101975.47;5113250;28;20051;-70
2023/05/04 04:45:55;;;;;;;19.92;14.98;;;9.70;99.90;;;10.03;77.29;101977.31;5112679;28;20382;-71
2023/05/04 04:48:25;;;;;;;21.38;14.82;;;9.80;99.90;;;9.82;78.01;101969.06;5094617;28;20066;-70
2023/05/04 04:50:54;;;;;;;20.92;15.23;;;9.70;99.90;;;9.86;77.90;101962.97;5113272;28;20055;-70
2023/05/04 04:53:22;;;;;;;18.58;14.50;;;9.70;99.90;;;9.84;78.01;101969.97;5112620;28;20043;-70
2023/05/04 04:55:51;;;;;;;19.00;14.55;;;9.60;99.90;;;9.95;77.84;101970.13;5112585;28;20046;-70
2023/05/04 04:58:19;;;;;;;19.15;14.23;;;9.70;99.90;;;10.01;77.92;101965.84;5094554;28;20040;-70
2023/05/04 05:00:47;;;;;;;18.52;14.02;;;9.70;99.90;;;10.11;77.66;101974.84;5109141;28;20090;-70
2023/05/04 05:03:16;;;;;;;20.15;14.85;;;9.80;99.90;;;10.18;77.76;101973.19;5112546;28;20036;-70
2023/05/04 05:05:45;;;;;;;21.77;14.77;;;9.90;99.90;;;10.21;77.03;101975.84;5112503;28;20480;-70
2023/05/04 05:08:14;;;;;;;18.85;14.93;;;10.00;99.90;;;9.98;77.25;101935.84;5113020;28;20052;-70
2023/05/04 05:10:43;;;;;;;18.70;15.43;;;10.00;99.90;;;10.16;76.97;101980.19;5112933;28;20044;-70
2023/05/04 05:13:11;;;;;;;19.40;14.55;;;9.90;99.90;;;9.74;78.02;101999.75;5112412;28;20067;-70
2023/05/04 05:15:40;;;;;;;20.17;14.98;;;9.70;99.90;;;10.14;78.27;101979.28;5094358;28;20048;-70
2023/05/04 05:18:08;;;;;;;20.67;15.15;;;9.80;99.90;;;9.93;78.00;101972.75;5112377;28;20442;-70
2023/05/04 05:20:37;;;;;;;21.70;15.10;;;9.80;99.90;;;10.08;78.11;101971.22;5112625;28;20062;-70
2023/05/04 05:23:06;;;;;;;18.77;14.75;;;9.80;99.90;;;10.23;77.40;101966.19;5113559;28;20039;-70
2023/05/04 05:25:35;;;;;;;16.83;14.17;;;9.90;99.90;;;10.17;77.69;101977.56;5098061;28;20096;-70
2023/05/04 05:28:04;;;;;;;20.75;15.00;;;9.90;99.90;;;9.98;77.20;101968.44;5116134;28;20285;-70
2023/05/04 05:30:32;;;;;;;17.35;14.43;;;9.90;99.90;;;9.82;78.23;101955.84;5116309;28;20047;-70
2023/05/04 05:33:02;;;;;;;18.70;15.13;;;9.70;99.90;;;9.97;78.32;101966.66;5115960;28;20043;-70
2023/05/04 05:35:31;;;;;;;21.60;15.13;;;9.80;99.90;;;10.00;78.02;101977.28;5115982;28;20040;-70
2023/05/04 05:37:59;;;;;;;19.35;14.85;;;9.80;99.90;;;10.21;78.01;101981.16;5115897;28;20040;-70
2023/05/04 05:40:29;;;;;;;20.52;15.00;;;9.90;99.90;;;10.31;77.38;101983.06;5115852;28;20035;-70
2023/05/04 05:42:57;;;;;;;22.30;15.27;;;10.00;99.90;;;10.35;77.39;101975.22;5116210;28;20093;-70
2023/05/04 05:45:26;;;;;;;16.30;14.07;;;10.10;99.90;;;10.27;77.05;101975.94;5111773;28;20122;-70
2023/05/04 05:47:54;;;;;;;22.52;14.77;;;10.10;99.90;;;10.41;77.46;101977.03;5116319;28;20055;-72
2023/05/04 05:50:24;;;;;;;17.23;14.20;;;10.10;99.90;;;10.45;76.99;101968.28;5097596;28;20051;-73
2023/05/04 05:52:52;;;;;;;20.60;15.30;;;10.20;99.90;;;10.39;76.80;101973.50;5115555;28;20118;-70
2023/05/04 05:55:20;;;;;;;20.02;15.18;;;10.20;99.90;;;10.36;76.68;101973.44;5115336;28;20067;-70
2023/05/04 05:57:51;;;;;;;18.80;15.25;;;10.20;99.90;;;10.40;77.49;101970.84;5115516;28;20050;-70
2023/05/04 06:00:20;;;;;;;20.48;16.05;;;10.10;99.90;;;10.39;77.65;101970.84;5115435;28;20132;-70
2023/05/04 06:02:48;;;;;;;22.42;15.60;;;10.10;99.90;;;10.51;76.93;101965.72;5115461;28;20065;-70
2023/05/04 06:05:17;;;;;;;20.48;15.10;;;10.30;99.90;;;10.62;76.92;101958.81;5115402;28;20043;-70
2023/05/04 06:07:45;;;;;;;20.15;15.23;;;10.30;99.90;;;10.35;76.85;101974.31;5085037;28;20047;-70
2023/05/04 06:10:14;;;;;;;22.10;15.15;;;10.20;99.90;;;10.12;78.27;101966.06;5111601;28;20035;-70
2023/05/04 06:12:42;;;;;;;21.35;15.68;;;10.00;99.90;;;10.18;77.92;101967.91;5115530;28;20044;-70
2023/05/04 06:15:13;;;;;;;20.15;15.35;;;10.00;99.90;;;10.23;78.89;101955.63;5115312;28;20043;-70
2023/05/04 06:17:41;;;;;;;24.33;16.02;;;10.00;99.90;;;10.26;78.92;101964.47;5115186;28;20465;-70
2023/05/04 06:20:10;;;;;;;19.83;15.85;;;10.00;99.90;;;10.31;78.75;101954.88;5115401;28;20042;-70
2023/05/04 06:22:39;;;;;;;20.23;16.05;;;10.10;99.90;;;10.49;78.30;101957.75;5115049;28;20040;-70
2023/05/04 06:25:08;;;;;;;19.88;15.52;;;10.20;99.90;;;10.52;78.59;101963.09;5115177;28;20039;-70
2023/05/04 06:27:36;;;;;;;22.92;15.45;;;10.20;99.90;;;10.39;79.32;101947.03;5114936;28;20040;-69
2023/05/04 06:30:06;;;;;;;20.05;15.32;;;10.10;99.90;;;10.43;78.53;101948.84;5115229;28;20050;-70
2023/05/04 06:32:37;;;;;;;20.38;15.85;;;10.20;99.90;;;10.85;78.80;101957.34;5111485;28;20039;-70
2023/05/04 06:35:07;;;;;;;21.10;14.60;;;10.40;99.90;;;10.69;77.02;101886.56;5113878;28;20396;-69
2023/05/04 06:37:36;;;;;;;22.13;15.77;;;10.70;99.90;;;10.75;76.88;101929.88;5088498;28;20051;-69
2023/05/04 06:40:06;;;;;;;20.60;15.45;;;10.60;99.90;;;10.90;77.58;101940.63;5115195;28;20051;-70
2023/05/04 06:42:35;;;;;;;20.02;14.88;;;10.60;99.90;;;10.88;76.73;101915.00;5114656;28;20051;-69
2023/05/04 06:45:05;;;;;;;23.17;15.48;;;10.80;99.90;;;10.92;77.55;101937.13;5096476;28;20067;-70
2023/05/04 06:47:36;;;;;;;20.83;14.93;;;10.60;99.90;;;11.22;76.52;101951.59;5083983;28;20193;-71
2023/05/04 06:50:09;;;;;;;;;;;10.90;99.90;;;11.20;75.41;101939.19;5112141;28;20046;-70
2023/05/04 06:52:40;;;;;;;21.38;15.68;;;11.00;99.90;;;10.83;77.07;101933.50;5114633;28;19958;-70
2023/05/04 06:55:09;;;;;;;20.63;14.43;;;10.80;99.90;;;11.00;77.03;101920.44;5114308;28;20047;-72
2023/05/04 06:57:38;;;;;;;21.67;14.73;;;10.70;99.90;;;11.13;75.49;101929.41;5096219;28;20507;-72
2023/05/04 07:00:09;;;;;;;20.80;14.98;;;10.90;99.90;;;10.98;76.97;101923.94;5114174;28;20499;-74
2023/05/04 07:02:39;;;;;;;18.30;14.60;;;10.70;99.90;;;11.35;76.83;101919.03;5110503;28;20092;-72
2023/05/04 07:05:08;;;;;;;18.58;14.60;;;10.90;99.90;;;11.21;76.15;101920.66;5110965;28;20048;-72
2023/05/04 07:07:37;;;;;;;23.95;14.70;;;11.00;99.90;;;11.15;75.54;101917.94;5114115;28;20040;-70
2023/05/04 07:10:07;;;;;;;23.00;14.68;;;10.90;99.90;;;10.91;74.91;101888.59;5114544;28;20039;-70
2023/05/04 07:12:35;;;;;;;20.77;14.37;;;10.90;99.90;;;10.75;76.25;101913.09;5114154;28;20044;-73
2023/05/04 07:15:05;;;;;;;19.83;14.35;;;10.60;99.90;;;11.04;76.54;101909.00;5114290;28;20050;-68
2023/05/04 07:17:33;;;;;;;24.13;14.70;;;10.70;99.90;;;11.29;75.44;101912.78;5113890;28;20134;-69
2023/05/04 07:20:05;;;;;;;19.65;14.80;;;11.00;99.90;;;11.64;74.85;101914.88;5113812;28;20044;-70
2023/05/04 07:22:34;;;;;;;25.60;15.27;;;11.30;99.90;;;11.82;73.77;101910.63;5109839;28;20081;-70
2023/05/04 07:25:02;;;;;;;18.83;14.50;;;11.50;99.90;;;11.97;73.86;101916.03;5113656;28;20473;-71
2023/05/04 07:27:31;;;;;;;19.58;14.95;;;11.60;99.90;;;11.93;72.33;101914.22;5113644;28;20040;-70
2023/05/04 07:30:00;;;;;;;23.05;14.80;;;11.80;99.90;;;11.99;74.01;101908.97;5095744;28;20401;-70
2023/05/04 07:32:28;;;;;;;22.40;14.70;;;11.70;99.90;;;11.90;74.36;101903.63;5113298;28;20044;-72
2023/05/04 07:34:57;;;;;;;19.80;13.40;;;11.80;99.90;;;12.32;72.53;101907.41;5113449;28;20044;-73
2023/05/04 07:37:28;;;;;;;20.33;14.32;;;12.00;99.90;;;12.54;71.32;101893.34;5103984;28;20036;-76
2023/05/04 07:39:59;;;;;;;18.33;13.88;;;12.20;99.90;;;12.43;71.25;101888.88;5091687;28;20055;-73
2023/05/04 07:42:28;;;;;;;19.60;13.95;;;12.30;99.90;;;12.20;72.05;101882.56;5091731;28;20047;-72
2023/05/04 07:44:56;;;;;;;17.80;13.63;;;12.10;99.90;;;11.82;74.19;101871.75;5109590;28;20051;-73
2023/05/04 07:47:25;;;;;;;16.33;13.85;;;11.70;99.90;;;11.76;73.79;101877.91;5094831;28;20488;-74
2023/05/04 07:49:53;;;;;;;18.77;14.20;;;11.50;99.90;;;11.78;73.92;101860.25;5113121;28;20047;-74
2023/05/04 07:52:22;;;;;;;22.60;14.73;;;11.60;99.90;;;11.99;73.21;101861.22;5113128;28;20488;-71
2023/05/04 07:54:53;;;;;;;18.35;14.15;;;11.70;99.90;;;12.18;74.38;101863.09;5113098;28;20439;-74
2023/05/04 07:57:22;;;;;;;17.17;14.45;;;11.80;99.90;;;12.40;72.82;101857.03;5112985;28;20078;-74
2023/05/04 07:59:55;;;;;;;18.45;13.32;;;12.10;99.90;;;12.24;72.84;101869.34;5112826;28;20054;-74
2023/05/04 08:02:23;;;;;;;20.20;14.82;;;12.10;99.90;;;12.51;73.62;101863.25;5109109;28;20623;-74
2023/05/04 08:04:51;;;;;;;18.52;14.45;;;12.20;99.90;;;12.75;72.73;101859.78;5112674;28;20046;-75
2023/05/04 08:07:21;;;;;;;17.75;14.15;;;12.40;99.90;;;12.68;72.08;101872.16;5112886;28;20043;-74
2023/05/04 08:09:51;;;;;;;20.10;14.30;;;12.40;99.90;;;12.56;72.88;101872.13;5113264;28;20130;-74
2023/05/04 08:12:22;;;;;;;23.07;14.43;;;12.30;99.90;;;12.75;71.34;101860.69;5112912;28;20058;-75
2023/05/04 08:14:51;;;;;;;16.77;13.93;;;12.50;99.90;;;12.63;73.42;101866.84;5113205;28;20040;-74
2023/05/04 08:17:19;;;;;;;21.23;13.38;;;12.30;99.90;;;12.96;71.20;101868.69;5113015;28;20042;-75
2023/05/04 08:19:48;;;;;;;21.77;14.15;;;12.70;99.90;;;12.84;70.97;101873.97;5112751;28;20043;-75
2023/05/04 08:22:16;;;;;;;19.40;13.65;;;12.60;99.90;;;12.84;71.37;101866.00;5109021;28;20043;-74
2023/05/04 08:24:46;;;;;;;17.20;13.90;;;12.60;99.90;;;12.99;71.32;101859.88;5109035;28;20074;-74
2023/05/04 08:27:14;;;;;;;20.88;14.18;;;12.60;99.90;;;13.48;70.38;101865.22;5112895;28;20051;-75
2023/05/04 08:29:44;;;;;;;17.75;13.55;;;13.00;99.90;;;13.81;69.98;101864.31;5112776;28;20040;-74
2023/05/04 08:32:13;;;;;;;21.00;13.73;;;13.40;99.90;;;14.02;68.84;101853.63;5112591;28;20050;-75
2023/05/04 08:34:41;;;;;;;17.30;13.30;;;13.70;99.90;;;13.81;68.48;101853.66;5112685;28;20047;-75
2023/05/04 08:37:09;;;;;;;19.33;13.57;;;13.60;99.90;;;13.66;69.21;101834.19;5112202;28;20043;-75
2023/05/04 08:39:38;;;;;;;24.05;14.18;;;13.50;99.90;;;13.83;68.56;101833.28;5112731;28;20493;-75
2023/05/04 08:42:09;;;;;;;21.45;13.18;;;13.50;99.90;;;13.69;69.12;101848.38;5091356;28;20056;-75
2023/05/04 08:44:38;;;;;;;19.73;14.05;;;13.40;99.90;;;13.44;71.43;101836.88;5109077;28;20050;-75
2023/05/04 08:47:07;;;;;;;18.23;14.05;;;13.20;99.90;;;13.85;70.11;101825.28;5112685;28;20134;-75
2023/05/04 08:49:36;;;;;;;18.98;13.18;;;13.50;99.90;;;14.09;68.90;101817.25;5112693;28;20135;-75
2023/05/04 08:52:08;;;;;;;17.20;13.88;;;13.70;99.90;;;14.51;68.82;101827.75;5112976;28;20122;-75
2023/05/04 08:54:38;;;;;;;17.65;13.38;;;14.10;99.90;;;14.92;66.63;101824.81;5112630;28;20647;-75
2023/05/04 08:57:07;;;;;;;19.08;13.98;;;14.50;99.90;;;14.60;67.53;101830.34;5094371;28;20067;-75
2023/05/04 08:59:36;;;;;;;20.13;13.68;;;14.40;99.90;;;15.16;67.51;101835.28;5116301;28;20093;-75
2023/05/04 09:02:07;;;;;;;19.40;12.82;;;14.80;99.90;;;15.01;65.90;101832.75;5117022;28;20050;-75
2023/05/04 09:04:36;;;;;;;17.17;12.80;;;14.70;99.90;;;15.07;64.46;101820.28;5078902;28;20044;-75
2023/05/04 09:07:04;;;;;;;22.15;14.88;;;14.80;99.90;;;14.76;65.12;101823.16;5116503;28;20419;-75
2023/05/04 09:09:32;;;;;;;16.35;13.30;;;14.60;99.90;;;14.86;65.49;101815.09;5089920;28;20047;-76
2023/05/04 09:12:01;;;;;;;20.35;14.00;;;14.60;99.90;;;14.80;65.64;101816.91;5116380;28;20044;-73
2023/05/04 09:14:34;;;;;;;17.15;14.02;;;14.50;99.90;;;15.24;66.15;101812.13;5116306;28;20126;-73
2023/05/04 09:17:11;;;;;;;16.80;13.25;;;14.80;99.90;;;15.28;64.81;101796.09;5116458;28;20116;-73
2023/05/04 09:19:43;;;;;;;18.35;13.20;;;15.10;99.90;;;15.53;64.96;101783.47;5086741;28;20048;-74
2023/05/04 09:22:16;;;;;;;15.15;12.63;;;15.30;99.90;;;15.79;63.89;101786.75;5116086;28;20043;-70
2023/05/04 09:24:45;;;;;;;18.67;12.23;;;15.50;99.90;;;16.20;62.74;101799.59;5115981;28;20043;-72
2023/05/04 09:27:16;;;;;;;16.20;12.13;;;15.80;99.90;;;16.17;62.03;101796.97;5116431;28;20047;-72
2023/05/04 09:29:54;;;;;;;16.83;12.93;;;15.90;99.90;;;16.40;61.93;101793.97;5116095;28;20048;-72
2023/05/04 09:32:22;;;;;;;16.70;13.52;;;16.10;99.90;;;16.32;61.37;101799.44;5113894;28;20432;-72
2023/05/04 09:34:54;;;;;;;19.40;13.20;;;16.10;99.90;;;16.31;62.49;101805.69;5115928;28;20043;-73
2023/05/04 09:37:23;;;;;;;16.27;12.75;;;16.00;99.90;;;16.57;61.69;101800.91;5115757;28;20533;-73
2023/05/04 09:39:57;;;;;;;20.33;13.05;;;16.20;99.90;;;16.51;60.62;101792.97;5116093;28;20105;-73
2023/05/04 09:42:27;;;;;;;17.23;12.88;;;16.30;99.90;;;16.39;61.26;101768.19;5111995;28;20035;-72
2023/05/04 09:45:01;;;;;;;16.98;12.95;;;16.20;99.90;;;16.46;61.65;101793.91;5116388;28;20062;-72
2023/05/04 09:47:38;;;;;;;16.35;12.93;;;16.30;99.90;;;16.17;61.36;101724.88;5115788;28;20089;-72
2023/05/04 09:50:21;;;;;;;18.23;13.20;;;16.20;99.90;;;16.85;62.89;101763.97;5094268;28;20079;-72
2023/05/04 09:52:51;;;;;;;18.38;12.68;;;16.50;99.90;;;17.23;61.93;101779.41;5104321;28;20047;-72
2023/05/04 09:55:22;;;;;;;17.65;13.00;;;16.90;99.90;;;16.90;61.03;101771.00;5115857;28;20120;-72
2023/05/04 09:57:51;;;;;;;19.63;12.77;;;16.70;99.90;;;17.00;61.72;101756.59;5089262;28;20043;-71
2023/05/04 10:00:20;;;;;;;16.20;11.68;;;16.70;99.90;;;17.43;60.31;101758.50;5115532;28;20392;-72
2023/05/04 10:02:50;;;;;;;16.88;12.00;;;17.00;99.90;;;17.44;59.44;101757.63;5112056;28;20046;-71
2023/05/04 10:05:21;;;;;;;16.83;11.40;;;17.20;99.90;;;17.72;59.81;101759.78;5115720;28;20044;-72
2023/05/04 10:07:50;;;;;;;17.30;12.63;;;17.30;99.90;;;18.06;58.79;101759.09;5115455;28;20497;-72
2023/05/04 10:10:19;;;;;;;15.40;12.48;;;17.70;99.90;;;17.94;59.12;101747.69;5096966;28;20439;-71